createdAt,value
2022-09-12T00:00:00.783Z,99055.91
2022-09-12T00:00:33.165Z,99054.00
2022-09-12T00:01:09.766Z,99053.50
2022-09-12T00:01:42.119Z,99055.09
2022-09-12T00:02:17.234Z,99055.09
2022-09-12T00:02:53.069Z,99054.31
2022-09-12T00:03:25.242Z,99053.19
2022-09-12T00:04:02.262Z,99060.22
2022-09-12T00:04:34.883Z,99063.72
2022-09-12T00:05:08.161Z,99052.88
2022-09-12T00:05:44.586Z,99055.59
2022-09-12T00:06:23.122Z,99061.00
2022-09-12T00:06:55.532Z,99059.41
2022-09-12T00:07:27.654Z,99052.88
2022-09-12T00:08:03.321Z,99061.00
2022-09-12T00:08:35.563Z,99060.69
2022-09-12T00:09:10.529Z,99055.75
2022-09-12T00:09:45.537Z,99061.47
2022-09-12T00:10:18.512Z,99053.34
2022-09-12T00:10:53.259Z,99057.19
2022-09-12T00:11:28.277Z,99058.31
2022-09-12T00:12:00.386Z,99057.50
2022-09-12T00:12:32.462Z,99048.28
2022-09-12T00:13:07.285Z,99052.56
2022-09-12T00:13:41.956Z,99047.94
2022-09-12T00:14:18.932Z,99048.28
2022-09-12T00:14:51.014Z,99048.28
2022-09-12T00:15:23.110Z,99044.44
2022-09-12T00:15:57.820Z,99047.63
2022-09-12T00:16:32.396Z,99051.13
2022-09-12T00:17:04.822Z,99044.94
2022-09-12T00:17:40.886Z,99046.19
2022-09-12T00:18:15.596Z,99045.41
2022-09-12T00:18:50.709Z,99049.38
2022-09-12T00:19:22.857Z,99050.19
2022-09-12T00:19:55.951Z,99047.47
2022-09-12T00:20:28.126Z,99049.09
2022-09-12T00:21:06.980Z,99047.19
2022-09-12T00:21:40.097Z,99048.59
2022-09-12T00:22:12.195Z,99049.38
2022-09-12T00:22:46.985Z,99043.97
2022-09-12T00:23:19.294Z,99049.38
2022-09-12T00:23:52.070Z,99045.56
2022-09-12T00:24:26.755Z,99045.56
2022-09-12T00:24:58.955Z,99045.56
2022-09-12T00:25:31.372Z,99048.28
2022-09-12T00:26:07.894Z,99043.66
2022-09-12T00:26:42.772Z,99043.97
2022-09-12T00:27:14.888Z,99046.38
2022-09-12T00:27:47.005Z,99045.56
2022-09-12T00:28:21.940Z,99042.88
2022-09-12T00:28:54.521Z,99045.25
2022-09-12T00:29:26.616Z,99046.38
2022-09-12T00:30:01.274Z,99039.50
2022-09-12T00:30:33.849Z,99044.13
2022-09-12T00:31:08.339Z,99041.91
2022-09-12T00:31:43.065Z,99041.13
2022-09-12T00:32:15.185Z,99044.28
2022-09-12T00:32:47.254Z,99048.13
2022-09-12T00:33:22.019Z,99038.88
2022-09-12T00:33:56.863Z,99041.13
2022-09-12T00:34:29.013Z,99043.34
2022-09-12T00:35:03.745Z,99040.31
2022-09-12T00:35:40.806Z,99038.72
2022-09-12T00:36:16.627Z,99028.97
2022-09-12T00:36:51.542Z,99035.53
2022-09-12T00:37:23.617Z,99033.63
2022-09-12T00:37:55.730Z,99037.59
2022-09-12T00:38:30.488Z,99033.28
2022-09-12T00:39:02.766Z,99031.38
2022-09-12T00:39:36.249Z,99028.69
2022-09-12T00:40:11.621Z,99030.28
2022-09-12T00:40:44.806Z,99024.88
2022-09-12T00:41:24.947Z,99031.88
2022-09-12T00:41:57.105Z,99023.25
2022-09-12T00:42:29.399Z,99024.88
2022-09-12T00:43:04.118Z,99020.25
2022-09-12T00:43:38.756Z,99026.13
2022-09-12T00:44:57.539Z,99021.66
2022-09-12T00:45:30.732Z,99024.22
2022-09-12T00:46:07.550Z,99025.97
2022-09-12T00:46:47.069Z,99020.56
2022-09-12T00:47:25.619Z,99021.34
2022-09-12T00:48:02.290Z,99020.25
2022-09-12T00:48:43.046Z,99023.41
2022-09-12T00:49:26.128Z,99026.13
2022-09-12T00:50:07.995Z,99019.13
2022-09-12T00:50:40.329Z,99021.34
2022-09-12T00:51:13.553Z,99010.81
2022-09-12T00:51:54.410Z,99015.78
2022-09-12T00:52:29.768Z,99025.81
2022-09-12T00:53:07.489Z,99011.47
2022-09-12T00:53:44.745Z,99021.19
2022-09-12T00:54:22.586Z,99024.72
2022-09-12T00:54:59.323Z,99023.09
2022-09-12T00:55:39.507Z,99020.41
2022-09-12T00:56:12.573Z,99016.88
2022-09-12T00:56:51.244Z,99021.50
2022-09-12T00:57:28.312Z,99020.41
2022-09-12T00:58:06.589Z,99016.59
2022-09-12T00:58:44.137Z,99017.19
2022-09-12T00:59:23.078Z,99023.41
2022-09-12T00:59:59.813Z,99016.72
2022-09-12T01:00:32.459Z,99024.38
2022-09-12T01:01:07.276Z,99021.66
2022-09-12T01:01:42.271Z,99022.00
2022-09-12T01:02:15.371Z,99021.19
2022-09-12T01:02:53.670Z,99020.09
2022-09-12T01:03:26.312Z,99018.78
2022-09-12T01:03:58.814Z,99018.00
2022-09-12T01:04:33.854Z,99025.00
2022-09-12T01:05:07.934Z,99016.88
2022-09-12T01:05:44.571Z,99016.41
2022-09-12T01:06:24.634Z,99017.53
2022-09-12T01:06:58.870Z,99027.88
2022-09-12T01:07:31.611Z,99018.16
2022-09-12T01:08:07.609Z,99019.28
2022-09-12T01:08:43.280Z,99016.88
2022-09-12T01:09:18.572Z,99014.97
2022-09-12T01:09:53.529Z,99009.88
2022-09-12T01:10:25.631Z,99013.69
2022-09-12T01:10:58.174Z,99016.38
2022-09-12T01:11:31.211Z,99013.69
2022-09-12T01:12:09.885Z,99010.16
2022-09-12T01:12:43.706Z,99015.59
2022-09-12T01:13:16.303Z,99023.25
2022-09-12T01:13:52.497Z,99020.53
2022-09-12T01:14:24.885Z,99013.81
2022-09-12T01:14:57.026Z,99014.63
2022-09-12T01:15:29.172Z,99017.34
2022-09-12T01:16:06.388Z,99006.03
2022-09-12T01:16:38.870Z,99015.75
2022-09-12T01:17:13.131Z,99014.97
2022-09-12T01:18:02.393Z,99012.56
2022-09-12T01:18:46.293Z,99022.94
2022-09-12T01:19:44.354Z,99019.72
2022-09-12T01:20:53.765Z,99009.34
2022-09-12T01:21:37.549Z,99016.34
2022-09-12T01:22:28.183Z,99017.16
2022-09-12T01:23:21.078Z,99014.75
2022-09-12T01:24:37.468Z,99012.38
2022-09-12T01:25:21.334Z,99016.19
2022-09-12T01:26:17.387Z,99006.97
2022-09-12T01:27:23.862Z,99019.22
2022-09-12T01:28:36.973Z,99016.03
2022-09-12T01:29:33.641Z,99016.84
2022-09-12T01:30:28.134Z,99011.44
2022-09-12T01:31:06.100Z,99021.13
2022-09-12T01:31:44.678Z,99018.91
2022-09-12T01:32:25.485Z,99015.09
2022-09-12T01:33:19.182Z,99020.50
2022-09-12T01:34:04.852Z,99018.91
2022-09-12T01:34:43.593Z,99020.50
2022-09-12T01:35:24.188Z,99011.28
2022-09-12T01:36:20.908Z,99018.28
2022-09-12T01:37:04.131Z,99010.00
2022-09-12T01:37:43.417Z,99014.28
2022-09-12T01:38:27.632Z,99010.78
2022-09-12T01:39:03.942Z,99011.59
2022-09-12T01:39:44.150Z,99016.69
2022-09-12T01:40:25.370Z,99011.59
2022-09-12T01:41:08.465Z,99008.88
2022-09-12T01:41:50.068Z,99018.09
2022-09-12T01:42:34.579Z,99010.78
2022-09-12T01:43:20.733Z,99010.00
2022-09-12T01:44:03.711Z,99012.22
2022-09-12T01:44:42.415Z,99011.44
2022-09-12T01:45:29.329Z,99009.19
2022-09-12T01:46:08.701Z,99014.59
2022-09-12T01:46:46.411Z,99013.50
2022-09-12T01:47:26.778Z,99020.97
2022-09-12T01:48:01.170Z,99016.03
2022-09-12T01:48:37.209Z,99028.13
2022-09-12T01:49:18.791Z,99015.91
2022-09-12T01:49:58.251Z,99015.25
2022-09-12T01:50:36.929Z,99025.28
2022-09-12T01:51:14.876Z,99021.94
2022-09-12T01:51:57.065Z,99017.66
2022-09-12T01:52:39.638Z,99020.03
2022-09-12T01:53:18.966Z,99020.84
2022-09-12T01:53:55.762Z,99020.03
2022-09-12T01:54:38.507Z,99017.81
2022-09-12T01:55:17.028Z,99017.03
2022-09-12T01:55:56.076Z,99016.72
2022-09-12T01:56:33.890Z,99022.94
2022-09-12T01:57:13.183Z,99017.50
2022-09-12T01:57:49.676Z,99020.22
2022-09-12T01:58:29.437Z,99025.31
2022-09-12T01:59:06.104Z,99015.91
2022-09-12T01:59:43.995Z,99020.22
2022-09-12T02:00:22.268Z,99015.91
2022-09-12T02:01:03.589Z,99020.84
2022-09-12T02:01:39.837Z,99019.72
2022-09-12T02:02:17.795Z,99017.31
2022-09-12T02:02:56.616Z,99012.72
2022-09-12T02:03:33.675Z,99020.03
2022-09-12T02:04:14.493Z,99020.38
2022-09-12T02:04:52.821Z,99014.94
2022-09-12T02:05:31.485Z,99020.66
2022-09-12T02:06:11.327Z,99017.47
2022-09-12T02:06:48.515Z,99016.19
2022-09-12T02:07:22.895Z,99019.41
2022-09-12T02:08:04.323Z,99012.06
2022-09-12T02:08:43.294Z,99013.00
2022-09-12T02:09:22.921Z,99013.78
2022-09-12T02:10:02.917Z,99018.41
2022-09-12T02:10:41.931Z,99009.81
2022-09-12T02:11:14.158Z,99011.72
2022-09-12T02:11:51.606Z,99011.44
2022-09-12T02:12:31.890Z,99005.50
2022-09-12T02:13:09.786Z,99004.72
2022-09-12T02:13:46.938Z,99007.41
2022-09-12T02:14:24.389Z,99013.63
2022-09-12T02:15:02.174Z,99011.72
2022-09-12T02:15:43.513Z,99008.22
2022-09-12T02:16:22.479Z,99007.41
2022-09-12T02:16:58.976Z,99012.03
2022-09-12T02:17:35.331Z,99008.22
2022-09-12T02:18:08.593Z,99002.34
2022-09-12T02:18:45.149Z,99010.47
2022-09-12T02:19:23.873Z,99008.53
2022-09-12T02:19:59.492Z,99006.63
2022-09-12T02:20:47.935Z,99006.31
2022-09-12T02:21:25.176Z,99006.97
2022-09-12T02:22:00.560Z,99010.94
2022-09-12T02:22:36.571Z,99008.53
2022-09-12T02:23:15.654Z,99008.53
2022-09-12T02:23:54.316Z,98998.34
2022-09-12T02:24:31.763Z,99011.06
2022-09-12T02:25:11.638Z,99009.00
2022-09-12T02:25:47.019Z,99007.91
2022-09-12T02:26:26.068Z,99008.38
2022-09-12T02:27:06.230Z,99004.84
2022-09-12T02:27:43.242Z,99009.16
2022-09-12T02:28:19.979Z,99009.97
2022-09-12T02:28:54.676Z,99006.16
2022-09-12T02:29:27.145Z,98998.19
2022-09-12T02:30:00.038Z,99007.41
2022-09-12T02:30:44.985Z,99001.69
2022-09-12T02:31:23.874Z,99003.91
2022-09-12T02:31:59.119Z,98998.19
2022-09-12T02:32:39.384Z,99001.69
2022-09-12T02:33:20.674Z,99002.00
2022-09-12T02:34:09.095Z,99002.34
2022-09-12T02:34:49.826Z,99001.53
2022-09-12T02:35:33.016Z,98998.03
2022-09-12T02:36:24.037Z,99000.75
2022-09-12T02:37:03.920Z,99008.38
2022-09-12T02:37:52.870Z,98999.44
2022-09-12T02:38:30.235Z,99006.00
2022-09-12T02:39:02.408Z,99005.19
2022-09-12T02:39:40.200Z,99003.28
2022-09-12T02:40:15.021Z,99009.00
2022-09-12T02:40:47.331Z,99004.41
2022-09-12T02:41:24.323Z,99002.50
2022-09-12T02:42:01.096Z,99005.19
2022-09-12T02:42:33.235Z,99004.69
2022-09-12T02:43:09.146Z,99008.69
2022-09-12T02:43:41.412Z,99006.75
2022-09-12T02:44:13.870Z,99005.66
2022-09-12T02:44:48.715Z,99005.66
2022-09-12T02:45:22.930Z,99008.69
2022-09-12T02:45:57.786Z,99009.81
2022-09-12T02:46:39.526Z,99012.81
2022-09-12T02:47:19.266Z,99013.47
2022-09-12T02:47:55.320Z,99017.28
2022-09-12T02:48:32.042Z,99019.19
2022-09-12T02:49:04.318Z,99019.19
2022-09-12T02:49:36.452Z,99009.16
2022-09-12T02:50:12.215Z,99011.56
2022-09-12T02:50:45.063Z,99021.28
2022-09-12T02:51:22.938Z,99016.63
2022-09-12T02:51:58.783Z,99015.06
2022-09-12T02:52:31.708Z,99023.19
2022-09-12T02:53:07.615Z,99018.88
2022-09-12T02:53:43.326Z,99008.03
2022-09-12T02:54:18.071Z,99020.78
2022-09-12T02:54:51.909Z,99018.88
2022-09-12T02:55:26.883Z,99023.47
2022-09-12T02:55:59.118Z,99023.47
2022-09-12T02:56:31.490Z,99036.22
2022-09-12T02:57:04.057Z,99031.91
2022-09-12T02:57:38.811Z,99035.41
2022-09-12T02:58:15.191Z,99031.44
2022-09-12T02:58:48.903Z,99025.53
2022-09-12T02:59:26.273Z,99028.88
2022-09-12T03:00:01.099Z,99020.25
2022-09-12T03:00:38.059Z,99026.00
2022-09-12T03:01:23.942Z,99018.81
2022-09-12T03:02:12.526Z,99025.97
2022-09-12T03:03:25.814Z,99022.28
2022-09-12T03:04:17.527Z,99016.22
2022-09-12T03:05:13.507Z,99014.31
2022-09-12T03:05:54.353Z,99017.81
2022-09-12T03:06:38.133Z,99015.88
2022-09-12T03:07:16.030Z,99008.91
2022-09-12T03:08:20.990Z,99015.13
2022-09-12T03:09:06.849Z,99012.72
2022-09-12T03:09:47.389Z,99015.13
2022-09-12T03:10:32.864Z,99009.72
2022-09-12T03:11:29.959Z,99014.31
2022-09-12T03:12:16.903Z,99016.22
2022-09-12T03:12:55.646Z,99015.13
2022-09-12T03:13:39.135Z,99016.38
2022-09-12T03:14:34.015Z,99019.09
2022-09-12T03:15:18.075Z,99015.59
2022-09-12T03:16:06.651Z,99013.38
2022-09-12T03:16:51.349Z,99021.00
2022-09-12T03:17:30.313Z,99016.88
2022-09-12T03:18:14.954Z,99014.66
2022-09-12T03:18:58.203Z,99017.34
2022-09-12T03:19:45.982Z,99020.56
2022-09-12T03:20:24.881Z,99012.91
2022-09-12T03:21:05.798Z,99012.59
2022-09-12T03:21:45.908Z,99016.13
2022-09-12T03:22:23.839Z,99016.13
2022-09-12T03:23:02.120Z,99010.69
2022-09-12T03:23:42.914Z,99018.47
2022-09-12T03:24:19.750Z,99018.47
2022-09-12T03:25:02.810Z,99008.78
2022-09-12T03:25:40.133Z,99017.69
2022-09-12T03:26:17.153Z,99015.47
2022-09-12T03:26:58.898Z,99021.69
2022-09-12T03:27:35.120Z,99012.78
2022-09-12T03:28:10.342Z,99022.50
2022-09-12T03:28:46.703Z,99014.38
2022-09-12T03:29:20.372Z,99021.69
2022-09-12T03:29:54.006Z,99020.88
2022-09-12T03:30:29.129Z,99015.47
2022-09-12T03:31:01.350Z,99015.78
2022-09-12T03:31:33.835Z,99017.38
2022-09-12T03:32:11.196Z,99019.78
2022-09-12T03:32:45.494Z,99017.38
2022-09-12T03:33:19.440Z,99022.78
2022-09-12T03:33:54.202Z,99027.91
2022-09-12T03:34:27.769Z,99021.69
2022-09-12T03:34:59.940Z,99020.88
2022-09-12T03:35:34.652Z,99019.78
2022-09-12T03:36:10.080Z,99019.78
2022-09-12T03:36:42.191Z,99015.47
2022-09-12T03:37:14.330Z,99021.38
2022-09-12T03:37:50.412Z,99027.09
2022-09-12T03:38:22.560Z,99021.19
2022-09-12T03:38:55.005Z,99023.91
2022-09-12T03:39:29.817Z,99023.09
2022-09-12T03:40:02.432Z,99025.03
2022-09-12T03:40:34.800Z,99021.81
2022-09-12T03:41:09.495Z,99025.63
2022-09-12T03:41:41.664Z,99017.84
2022-09-12T03:42:13.754Z,99029.16
2022-09-12T03:42:48.428Z,99025.63
2022-09-12T03:43:20.550Z,99020.56
2022-09-12T03:43:52.686Z,99018.97
2022-09-12T03:44:27.504Z,99017.84
2022-09-12T03:44:59.609Z,99016.25
2022-09-12T03:45:31.781Z,99019.25
2022-09-12T03:46:06.617Z,99022.75
2022-09-12T03:46:38.727Z,99021.16
2022-09-12T03:47:13.406Z,99022.75
2022-09-12T03:47:48.130Z,99018.78
2022-09-12T03:48:20.248Z,99011.28
2022-09-12T03:48:52.378Z,99019.41
2022-09-12T03:49:27.079Z,99019.09
2022-09-12T03:49:59.209Z,99024.34
2022-09-12T03:50:31.336Z,99023.22
2022-09-12T03:51:06.881Z,99028.31
2022-09-12T03:51:39.310Z,99024.50
2022-09-12T03:52:11.373Z,99026.09
2022-09-12T03:52:46.058Z,99019.59
2022-09-12T03:53:18.310Z,99025.47
2022-09-12T03:53:50.412Z,99032.16
2022-09-12T03:54:25.194Z,99027.25
2022-09-12T03:54:57.303Z,99029.66
2022-09-12T03:55:29.635Z,99029.66
2022-09-12T03:56:10.075Z,99031.22
2022-09-12T03:56:41.897Z,99034.38
2022-09-12T03:57:14.220Z,99031.38
2022-09-12T03:57:49.131Z,99030.25
2022-09-12T03:58:21.471Z,99042.19
2022-09-12T03:58:53.564Z,99031.38
2022-09-12T03:59:28.218Z,99035.50
2022-09-12T04:00:02.074Z,99036.59
2022-09-12T04:00:44.642Z,99038.66
2022-09-12T04:01:21.560Z,99034.66
2022-09-12T04:01:53.683Z,99031.41
2022-09-12T04:02:28.429Z,99037.25
2022-09-12T04:03:03.275Z,99036.91
2022-09-12T04:03:35.413Z,99033.34
2022-09-12T04:04:07.488Z,99044.94
2022-09-12T04:04:43.829Z,99033.44
2022-09-12T04:05:16.302Z,99046.28
2022-09-12T04:05:48.673Z,99051.63
2022-09-12T04:06:25.569Z,99042.16
2022-09-12T04:06:57.745Z,99049.88
2022-09-12T04:07:30.253Z,99053.31
2022-09-12T04:08:05.513Z,99042.13
2022-09-12T04:08:38.211Z,99048.75
2022-09-12T04:09:10.298Z,99052.69
2022-09-12T04:09:45.013Z,99064.09
2022-09-12T04:10:17.370Z,99053.88
2022-09-12T04:10:49.433Z,99058.00
2022-09-12T04:11:25.068Z,99061.13
2022-09-12T04:11:57.188Z,99054.72
2022-09-12T04:12:29.788Z,99053.13
2022-09-12T04:13:04.823Z,99053.41
2022-09-12T04:13:37.820Z,99067.19
2022-09-12T04:14:09.942Z,99063.19
2022-09-12T04:14:44.839Z,99069.22
2022-09-12T04:15:17.313Z,99057.91
2022-09-12T04:15:57.515Z,99059.63
2022-09-12T04:16:32.450Z,99058.91
2022-09-12T04:17:04.850Z,99066.53
2022-09-12T04:17:39.631Z,99061.41
2022-09-12T04:18:14.283Z,99059.53
2022-09-12T04:18:47.034Z,99062.22
2022-09-12T04:19:19.197Z,99058.44
2022-09-12T04:19:53.869Z,99064.31
2022-09-12T04:20:26.065Z,99075.72
2022-09-12T04:20:58.524Z,99076.81
2022-09-12T04:21:33.913Z,99064.22
2022-09-12T04:22:06.136Z,99064.22
2022-09-12T04:22:38.219Z,99072.50
2022-09-12T04:23:12.870Z,99078.22
2022-09-12T04:23:45.089Z,99074.13
2022-09-12T04:24:17.393Z,99076.81
2022-09-12T04:24:52.176Z,99063.59
2022-09-12T04:25:24.312Z,99070.94
2022-09-12T04:25:57.401Z,99080.94
2022-09-12T04:26:32.231Z,99082.31
2022-09-12T04:27:07.737Z,99071.31
2022-09-12T04:27:40.073Z,99073.81
2022-09-12T04:28:14.747Z,99069.81
2022-09-12T04:28:47.885Z,99076.00
2022-09-12T04:29:22.859Z,99076.91
2022-09-12T04:29:56.311Z,99064.13
2022-09-12T04:30:28.589Z,99064.22
2022-09-12T04:31:06.169Z,99060.81
2022-09-12T04:31:39.518Z,99064.63
2022-09-12T04:32:11.810Z,99063.50
2022-09-12T04:32:49.123Z,99065.63
2022-09-12T04:33:21.398Z,99076.91
2022-09-12T04:33:58.010Z,99070.59
2022-09-12T04:34:34.258Z,99071.59
2022-09-12T04:35:06.835Z,99065.13
2022-09-12T04:35:38.967Z,99068.00
2022-09-12T04:36:17.164Z,99065.81
2022-09-12T04:36:49.398Z,99073.31
2022-09-12T04:37:22.315Z,99077.31
2022-09-12T04:37:57.195Z,99071.03
2022-09-12T04:38:29.315Z,99067.22
2022-09-12T04:39:02.565Z,99059.13
2022-09-12T04:39:37.413Z,99067.72
2022-09-12T04:40:10.258Z,99063.31
2022-09-12T04:40:42.397Z,99068.09
2022-09-12T04:41:18.772Z,99065.63
2022-09-12T04:41:51.762Z,99067.53
2022-09-12T04:42:26.458Z,99072.31
2022-09-12T04:42:58.552Z,99073.13
2022-09-12T04:43:30.629Z,99074.72
2022-09-12T04:44:07.525Z,99057.09
2022-09-12T04:44:39.669Z,99065.19
2022-09-12T04:45:13.116Z,99064.91
2022-09-12T04:45:47.813Z,99069.22
2022-09-12T04:46:20.470Z,99074.81
2022-09-12T04:46:52.871Z,99072.59
2022-09-12T04:47:27.677Z,99068.78
2022-09-12T04:48:02.726Z,99070.44
2022-09-12T04:48:35.081Z,99068.53
2022-09-12T04:49:10.142Z,99080.13
2022-09-12T04:49:42.226Z,99073.13
2022-09-12T04:50:15.049Z,99070.13
2022-09-12T04:50:49.884Z,99072.50
2022-09-12T04:51:26.062Z,99081.59
2022-09-12T04:51:58.190Z,99077.63
2022-09-12T04:52:32.839Z,99081.94
2022-09-12T04:53:05.103Z,99078.09
2022-09-12T04:53:39.217Z,99082.41
2022-09-12T04:54:15.922Z,99077.00
2022-09-12T04:54:48.446Z,99076.22
2022-09-12T04:55:21.027Z,99077.00
2022-09-12T04:55:55.683Z,99085.91
2022-09-12T04:56:29.181Z,99092.41
2022-09-12T04:57:01.418Z,99083.50
2022-09-12T04:57:36.103Z,99084.31
2022-09-12T04:58:08.226Z,99079.72
2022-09-12T04:58:40.531Z,99083.72
2022-09-12T04:59:16.267Z,99086.41
2022-09-12T04:59:48.519Z,99087.19
2022-09-12T05:00:23.363Z,99093.41
2022-09-12T05:00:55.457Z,99091.81
2022-09-12T05:01:29.881Z,99084.00
2022-09-12T05:02:04.856Z,99088.31
2022-09-12T05:02:37.032Z,99093.41
2022-09-12T05:03:11.747Z,99085.81
2022-09-12T05:03:47.234Z,99095.50
2022-09-12T05:04:19.703Z,99091.69
2022-09-12T05:04:52.840Z,99091.41
2022-09-12T05:05:27.606Z,99089.19
2022-09-12T05:06:00.215Z,99097.31
2022-09-12T05:06:34.679Z,99084.59
2022-09-12T05:07:09.340Z,99080.59
2022-09-12T05:07:41.460Z,99081.50
2022-09-12T05:08:13.531Z,99081.50
2022-09-12T05:08:46.565Z,99080.41
2022-09-12T05:09:21.307Z,99084.19
2022-09-12T05:09:53.459Z,99085.81
2022-09-12T05:10:25.627Z,99082.81
2022-09-12T05:11:01.877Z,99073.59
2022-09-12T05:12:03.328Z,99078.69
2022-09-12T05:12:31.248Z,99083.59
2022-09-12T05:13:05.983Z,99084.91
2022-09-12T05:13:38.953Z,99082.38
2022-09-12T05:14:11.221Z,99081.00
2022-09-12T05:14:45.883Z,99084.69
2022-09-12T05:15:18.252Z,99078.97
2022-09-12T05:15:56.559Z,99078.38
2022-09-12T05:16:32.893Z,99074.88
2022-09-12T05:17:06.187Z,99079.94
2022-09-12T05:17:40.934Z,99082.34
2022-09-12T05:18:15.607Z,99083.16
2022-09-12T05:18:49.118Z,99081.72
2022-09-12T05:19:23.791Z,99079.53
2022-09-12T05:19:55.952Z,99085.41
2022-09-12T05:20:28.128Z,99078.91
2022-09-12T05:21:03.271Z,99072.81
2022-09-12T05:21:35.432Z,99086.72
2022-09-12T05:22:10.099Z,99078.91
2022-09-12T05:22:42.251Z,99082.44
2022-09-12T05:23:14.333Z,99079.72
2022-09-12T05:23:50.516Z,99084.03
2022-09-12T05:24:22.638Z,99078.13
2022-09-12T05:24:57.318Z,99077.31
2022-09-12T05:25:29.437Z,99080.34
2022-09-12T05:26:03.193Z,99082.25
2022-09-12T05:26:37.866Z,99084.94
2022-09-12T05:27:10.216Z,99084.44
2022-09-12T05:27:48.627Z,99077.94
2022-09-12T05:28:23.004Z,99082.25
2022-09-12T05:28:55.729Z,99085.25
2022-09-12T05:29:30.403Z,99080.34
2022-09-12T05:30:02.650Z,99084.94
2022-09-12T05:30:34.805Z,99086.03
2022-09-12T05:31:11.985Z,99080.94
2022-09-12T05:31:44.098Z,99077.47
2022-09-12T05:32:18.825Z,99080.44
2022-09-12T05:32:51.011Z,99083.16
2022-09-12T05:33:25.710Z,99082.88
2022-09-12T05:33:57.831Z,99081.25
2022-09-12T05:34:32.494Z,99082.06
2022-09-12T05:35:05.295Z,99080.44
2022-09-12T05:35:38.204Z,99081.25
2022-09-12T05:36:15.139Z,99080.44
2022-09-12T05:36:47.275Z,99080.44
2022-09-12T05:37:23.235Z,99079.66
2022-09-12T05:37:55.320Z,99083.97
2022-09-12T05:38:29.136Z,99083.34
2022-09-12T05:39:04.713Z,99080.63
2022-09-12T05:39:36.785Z,99076.03
2022-09-12T05:40:10.256Z,99082.25
2022-09-12T05:40:45.003Z,99084.66
2022-09-12T05:41:23.002Z,99079.72
2022-09-12T05:41:56.876Z,99080.03
2022-09-12T05:42:33.118Z,99078.91
2022-09-12T05:43:05.198Z,99080.03
2022-09-12T05:43:38.923Z,99085.41
2022-09-12T05:44:15.503Z,99084.66
2022-09-12T05:44:47.635Z,99082.25
2022-09-12T05:45:19.717Z,99077.94
2022-09-12T05:45:54.487Z,99079.03
2022-09-12T05:46:28.916Z,99072.53
2022-09-12T05:47:03.601Z,99082.53
2022-09-12T05:47:35.742Z,99083.63
2022-09-12T05:48:07.922Z,99079.34
2022-09-12T05:48:47.130Z,99077.75
2022-09-12T05:49:19.315Z,99085.34
2022-09-12T05:49:52.630Z,99086.16
2022-09-12T05:50:27.382Z,99079.94
2022-09-12T05:51:01.646Z,99077.56
2022-09-12T05:51:35.861Z,99080.56
2022-09-12T05:52:10.583Z,99081.38
2022-09-12T05:52:42.746Z,99082.97
2022-09-12T05:53:14.874Z,99075.66
2022-09-12T05:53:52.789Z,99078.66
2022-09-12T05:54:28.317Z,99084.34
2022-09-12T05:55:03.046Z,99080.38
2022-09-12T05:55:37.778Z,99081.19
2022-09-12T05:56:11.669Z,99078.47
2022-09-12T05:56:47.248Z,99070.38
2022-09-12T05:57:19.405Z,99070.66
2022-09-12T05:57:54.328Z,99074.97
2022-09-12T05:58:26.546Z,99081.19
2022-09-12T05:59:01.106Z,99073.56
2022-09-12T05:59:35.788Z,99077.88
2022-09-12T06:00:09.905Z,99072.97
2022-09-12T06:00:44.083Z,99077.75
2022-09-12T06:01:20.492Z,99079.84
2022-09-12T06:01:52.914Z,99074.63
2022-09-12T06:02:27.865Z,99081.03
2022-09-12T06:02:59.997Z,99072.59
2022-09-12T06:03:32.144Z,99070.88
2022-09-12T06:04:07.415Z,99069.50
2022-09-12T06:04:43.779Z,99072.66
2022-09-12T06:05:16.076Z,99066.69
2022-09-12T06:05:50.672Z,99066.06
2022-09-12T06:06:27.856Z,99076.75
2022-09-12T06:06:59.950Z,99071.34
2022-09-12T06:07:35.840Z,99077.22
2022-09-12T06:08:07.906Z,99075.31
2022-09-12T06:08:41.299Z,99072.78
2022-09-12T06:09:17.265Z,99072.78
2022-09-12T06:09:49.351Z,99088.09
2022-09-12T06:10:23.163Z,99071.22
2022-09-12T06:11:02.558Z,99080.44
2022-09-12T06:11:37.410Z,99079.63
2022-09-12T06:12:12.119Z,99077.53
2022-09-12T06:12:44.190Z,99075.94
2022-09-12T06:13:16.343Z,99074.03
2022-09-12T06:13:51.227Z,99071.34
2022-09-12T06:14:23.376Z,99075.94
2022-09-12T06:14:55.461Z,99075.94
2022-09-12T06:15:30.127Z,99075.13
2022-09-12T06:16:06.355Z,99074.34
2022-09-12T06:16:39.340Z,99080.72
2022-09-12T06:17:14.409Z,99074.84
2022-09-12T06:17:51.355Z,99075.66
2022-09-12T06:18:23.689Z,99072.94
2022-09-12T06:18:59.648Z,99074.22
2022-09-12T06:19:34.546Z,99078.53
2022-09-12T06:20:10.603Z,99075.50
2022-09-12T06:20:42.705Z,99083.59
2022-09-12T06:21:14.855Z,99081.53
2022-09-12T06:21:50.337Z,99081.06
2022-09-12T06:22:22.563Z,99077.03
2022-09-12T06:22:54.670Z,99080.03
2022-09-12T06:23:29.695Z,99080.03
2022-09-12T06:24:02.568Z,99079.28
2022-09-12T06:24:37.311Z,99079.28
2022-09-12T06:25:09.496Z,99074.63
2022-09-12T06:25:47.240Z,99080.84
2022-09-12T06:26:23.647Z,99074.63
2022-09-12T06:26:56.028Z,99081.66
2022-09-12T06:27:28.114Z,99078.66
2022-09-12T06:28:02.955Z,99078.47
2022-09-12T06:28:37.027Z,99085.16
2022-09-12T06:29:11.569Z,99084.66
2022-09-12T06:29:46.282Z,99083.38
2022-09-12T06:30:21.247Z,99079.84
2022-09-12T06:31:02.188Z,99082.25
2022-09-12T06:31:39.122Z,99070.66
2022-09-12T06:32:11.767Z,99082.75
2022-09-12T06:32:46.418Z,99079.44
2022-09-12T06:33:18.802Z,99080.25
2022-09-12T06:33:52.499Z,99078.03
2022-09-12T06:34:27.627Z,99081.22
2022-09-12T06:35:02.594Z,99079.81
2022-09-12T06:35:36.537Z,99083.00
2022-09-12T06:36:14.025Z,99087.78
2022-09-12T06:36:48.013Z,99087.78
2022-09-12T06:37:22.693Z,99091.31
2022-09-12T06:37:55.031Z,99094.81
2022-09-12T06:38:27.222Z,99090.19
2022-09-12T06:39:04.434Z,99087.97
2022-09-12T06:39:38.572Z,99094.69
2022-09-12T06:40:12.544Z,99084.06
2022-09-12T06:40:47.430Z,99090.44
2022-09-12T06:41:19.550Z,99083.94
2022-09-12T06:41:52.430Z,99089.50
2022-09-12T06:42:38.652Z,99085.09
2022-09-12T06:43:11.780Z,99093.06
2022-09-12T06:43:43.929Z,99089.44
2022-09-12T06:44:20.542Z,99090.72
2022-09-12T06:44:52.678Z,99088.69
2022-09-12T06:45:26.164Z,99090.75
2022-09-12T06:46:00.977Z,99083.16
2022-09-12T06:46:33.513Z,99084.78
2022-09-12T06:47:08.601Z,99090.19
2022-09-12T06:47:40.670Z,99080.75
2022-09-12T06:48:12.753Z,99091.63
2022-09-12T06:48:47.479Z,99082.13
2022-09-12T06:49:19.607Z,99083.09
2022-09-12T06:49:51.682Z,99088.03
2022-09-12T06:50:29.111Z,99079.78
2022-09-12T06:51:02.457Z,99094.78
2022-09-12T06:51:36.362Z,99090.66
2022-09-12T06:52:11.115Z,99082.22
2022-09-12T06:52:44.525Z,99090.34
2022-09-12T06:53:16.629Z,99091.16
2022-09-12T06:53:52.443Z,99088.75
2022-09-12T06:54:26.532Z,99089.88
2022-09-12T06:55:01.186Z,99086.38
2022-09-12T06:55:33.972Z,99090.19
2022-09-12T06:56:09.383Z,99087.78
2022-09-12T06:56:44.375Z,99091.28
2022-09-12T06:57:16.517Z,99092.38
2022-09-12T06:57:48.578Z,99090.81
2022-09-12T06:58:23.235Z,99090.00
2022-09-12T06:58:57.292Z,99089.81
2022-09-12T06:59:32.105Z,99098.25
2022-09-12T07:00:05.736Z,99091.88
2022-09-12T07:00:37.847Z,99087.56
2022-09-12T07:01:15.535Z,99088.69
2022-09-12T07:01:47.964Z,99088.19
2022-09-12T07:02:20.186Z,99082.59
2022-09-12T07:02:58.253Z,99088.34
2022-09-12T07:03:31.108Z,99094.84